Millenium Air

Millenium Air Since 1998



 METAR AND TAF INFORMATION
METAR FOR GOGS
ADDS - METARS form results

(1419 UTC 29 July 2021)
Data provider http://aviationweather.gov/metar/data/
 
Forecast for: GOGS (CAPE SKIRING , SN)
Text: TAF GOGS 291130Z 2912/3012 26008KT 9999 SCT015
Forecast period: 1200 UTC 29 July 2021 to 1200 UTC 30 July 2021
Forecast type: FROM: standard forecast or significant change
Winds: from the W (260 degrees) at 9 MPH (8 knots; 4.1 m/s)
Visibility: 6 or more miles (10+ km)
Ceiling: at least 12,000 feet AGL
Clouds: scattered clouds at 1500 feet AGL
Weather: no significant weather forecast for this period
Text: PROB40
Forecast period: 1500 to 2100 UTC 29 July 2021
Forecast type: TEMPORARY: The following changes expected for less than half the time period
Visibility: 2.49 miles (4.01 km)
Ceiling: 1300 feet AGL
Clouds: broken clouds at 1300 feet AGL
few clouds at 3000 feet AGL
Weather: TSRA  (rain associated with thunderstorm(s))

 AIRPORT MAP

 RUNWAY INFORMATION
Runway 15 Runway length 4756 ft Runway width 98 ft
Runway elevation 52 ft Runway displaced threshold 0 ft Runway heading 136
Runway 33 Runway length 4756 ft Runway width 98 ft
Runway elevation 30 ft Runway displaced threshold 0 ft Runway heading 316

 AIRPORT FREQUENCIES
Type A/G Name RDO Frequency 568 MHZ
Type TWR Name TWR Frequency 118.9 MHZ

 AIRPORT NEAR NAVIGATION AIDS
Type NDB Name Cap Skiring Frequency 398 KHZ